ADDS METAR Data INFO
IDs: Format: Raw Decoded Include TAF

Data at: 0717 UTC 24 Jun 2018

KLXN 240655Z AUTO 34012G17KT 10SM SCT070 BKN085 BKN100 19/14 A2989 RMK AO2 LTG DSNT N T01920138
KLXN 240635Z AUTO 32012KT 10SM VCTS SCT070 BKN100 20/14 A2991 RMK AO2 LTG DSNT N T01950140
KLXN 240615Z AUTO 30016G22KT 10SM BKN110 20/14 A2992 RMK AO2 T01970139
KLXN 240555Z AUTO 32016G23KT 10SM CLR 20/14 A2990 RMK AO2 LTG DSNT W T02000138 10308 20186 403120148
KLXN 240535Z AUTO 31020G32KT 10SM VCTS CLR 21/15 A2988 RMK AO2 LTG DSNT W T02050146
KLXN 240515Z AUTO 33006KT 10SM VCTS CLR 19/17 A2983 RMK AO2 LTG DSNT E T01900165
KLXN 240455Z AUTO 36005KT 10SM CLR 19/17 A2981 RMK AO2 LTG DSNT W T01890165
KLXN 240435Z AUTO 34004KT 10SM CLR 19/17 A2978 RMK AO2 LTG DSNT W AND NW T01900165
KLXN 240415Z AUTO 00000KT 10SM CLR 20/16 A2977 RMK AO2 LTG DSNT NW T01980163
KLXN 240355Z AUTO 00000KT 10SM CLR 21/17 A2977 RMK AO2 T02050165
KLXN 240335Z AUTO 00000KT 10SM CLR 20/17 A2977 RMK AO2 LTG DSNT W T02020170
KLXN 240315Z AUTO 28003KT 10SM CLR 22/17 A2978 RMK AO2 T02190165
KLXN 240255Z AUTO 20006KT 10SM CLR 23/16 A2977 RMK AO2 T02280162
KLXN 240235Z AUTO 21006KT 10SM CLR 24/16 A2978 RMK AO2 T02350163
KLXN 240215Z AUTO 20008KT 10SM CLR 24/16 A2978 RMK AO2 LTG DSNT NE T02440160
KLXN 240155Z AUTO 18007KT 10SM CLR 24/16 A2977 RMK AO2 T02420159
KLXN 240135Z AUTO 21013G21KT 10SM SCT080 SCT100 27/15 A2978 RMK AO2 LTG DSNT S T02670151
KLXN 240115Z AUTO 21012G16KT 10SM SCT080 SCT100 27/16 A2977 RMK AO2 T02730155
KLXN 240055Z AUTO 19005KT 10SM CLR 29/16 A2976 RMK AO2 LTG DSNT SW AND NW T02880163
KLXN 240035Z AUTO 19005KT 10SM SCT110 30/16 A2975 RMK AO2 T02970156
KLXN 240015Z AUTO 18004KT 10SM SCT110 31/13 A2974 RMK AO2 T03050129
KLXN 232355Z AUTO 21004KT 10SM SCT100 30/15 A2974 RMK AO2 T02990148 10312 20281
KLXN 232335Z AUTO 22004KT 10SM SCT080 31/14 A2974 RMK AO2 T03060137
KLXN 232315Z AUTO 20006KT 10SM BKN080 30/15 A2974 RMK AO2 T02980146
KLXN 232255Z AUTO 22007KT 10SM SCT080 SCT110 31/13 A2974 RMK AO2 T03100129
KLXN 232235Z AUTO 21003KT 10SM SCT110 31/12 A2975 RMK AO2 T03110121
KLXN 232215Z AUTO 23004KT 10SM SCT090 SCT110 30/13 A2976 RMK AO2 T03010131
KLXN 232155Z AUTO 21005KT 10SM CLR 31/13 A2977 RMK AO2 T03100129
KLXN 232135Z AUTO 23010KT 10SM SCT075 31/13 A2977 RMK AO2 T03100128
KLXN 232115Z AUTO 24005KT 10SM SCT075 SCT085 31/12 A2977 RMK AO2 T03090123
KLXN 232055Z AUTO 24005KT 10SM SCT075 31/13 A2978 RMK AO2 T03080129
KLXN 232035Z AUTO 25005KT 10SM CLR 31/12 A2978 RMK AO2 T03050123
KLXN 232015Z AUTO 25005KT 10SM CLR 30/12 A2978 RMK AO2 T03040120
KLXN 231955Z AUTO 28006KT 10SM CLR 30/13 A2979 RMK AO2 T03020127
KLXN 231935Z AUTO 30006KT 10SM CLR 30/13 A2979 RMK AO2 T03020130
KLXN 231915Z AUTO 27006KT 10SM CLR 29/13 A2980 RMK AO2 T02920127
KLXN 231855Z AUTO 30006KT 10SM CLR 29/13 A2980 RMK AO2 T02930134
KLXN 231835Z AUTO 25008KT 10SM CLR 29/14 A2981 RMK AO2 T02900138
KLXN 231815Z AUTO 30007KT 10SM CLR 29/14 A2981 RMK AO2 T02880144
KLXN 231755Z AUTO 27008KT 10SM CLR 28/15 A2982 RMK AO2 T02810149 10281 20148
KLXN 231735Z AUTO 23004KT 10SM CLR 27/15 A2983 RMK AO2 T02720146
KLXN 231715Z AUTO 28008KT 10SM CLR 27/15 A2983 RMK AO2 T02680150
KLXN 231655Z AUTO 29006KT 10SM CLR 26/15 A2983 RMK AO2 T02640146
KLXN 231635Z AUTO 29006KT 10SM CLR 25/15 A2984 RMK AO2 T02520146
KLXN 231615Z AUTO 27005KT 10SM CLR 25/15 A2984 RMK AO2 T02490151
KLXN 231555Z AUTO 30006KT 10SM CLR 24/15 A2983 RMK AO2 T02370148
KLXN 231535Z AUTO 29005KT 10SM CLR 23/15 A2983 RMK AO2 T02290147
KLXN 231515Z AUTO 32008KT 10SM CLR 23/15 A2984 RMK AO2 T02310146
KLXN 231455Z AUTO 30005KT 10SM CLR 22/15 A2984 RMK AO2 T02200147
KLXN 231435Z AUTO 26004KT 10SM CLR 21/15 A2984 RMK AO2 T02110148
KLXN 231415Z AUTO 27006KT 10SM CLR 21/14 A2985 RMK AO2 T02060142
KLXN 231355Z AUTO 28006KT 10SM CLR 20/14 A2984 RMK AO2 T02000142
KLXN 231335Z AUTO 25005KT 10SM CLR 20/15 A2984 RMK AO2 T01950149
KLXN 231315Z AUTO 00000KT 10SM CLR 18/15 A2984 RMK AO2 T01810150
KLXN 231255Z AUTO 23003KT 10SM CLR 17/15 A2984 RMK AO2 T01680145
KLXN 231235Z AUTO 24003KT 10SM CLR 16/14 A2984 RMK AO2 T01580140
KLXN 231215Z AUTO 00000KT 10SM CLR 15/14 A2984 RMK AO2 T01490136
KLXN 231155Z AUTO 24003KT 10SM CLR 15/14 A2983 RMK AO2 T01520135 10178 20148
KLXN 231135Z AUTO 27004KT 10SM CLR 15/13 A2983 RMK AO2 T01490131
KLXN 231115Z AUTO 28004KT 10SM CLR 15/13 A2983 RMK AO2 T01520131
KLXN 231055Z AUTO 25004KT 10SM CLR 16/13 A2983 RMK AO2 T01560133
KLXN 231035Z AUTO 24006KT 10SM CLR 16/14 A2983 RMK AO2 T01590135
KLXN 231015Z AUTO 25004KT 10SM CLR 16/14 A2983 RMK AO2 T01570135
KLXN 230955Z AUTO 26005KT 10SM CLR 16/14 A2983 RMK AO2 T01580136
KLXN 230935Z AUTO 24003KT 10SM CLR 16/14 A2983 RMK AO2 T01620137
KLXN 230915Z AUTO 24003KT 10SM CLR 16/14 A2983 RMK AO2 T01620140
KLXN 230855Z AUTO 22004KT 10SM CLR 17/14 A2982 RMK AO2 T01650144
KLXN 230835Z AUTO 23004KT 10SM CLR 16/15 A2982 RMK AO2 T01620146
KLXN 230815Z AUTO 27004KT 10SM CLR 17/15 A2981 RMK AO2 T01650151
KLXN 230755Z AUTO 24003KT 4SM BR CLR 16/16 A2980 RMK AO2 T01640155
KLXN 230735Z AUTO 21004KT 4SM BR SCT120 17/16 A2980 RMK AO2 T01690159
KLXN 230715Z AUTO 13006KT 4SM BR CLR 17/16 A2978 RMK AO2 T01720163
KLXN 230655Z AUTO 12006KT 3SM BR CLR 17/16 A2978 RMK AO2 T01700161
KLXN 230635Z AUTO 16005KT 3SM VCTS BR CLR 17/16 A2984 RMK AO2 T01670158
KLXN 230615Z AUTO 16005KT 4SM BR SCT100 17/16 A2986 RMK AO2 LTG DSNT E T01730162
KLXN 230555Z AUTO 20004KT 7SM VCTS OVC100 18/17 A2990 RMK AO2 LTG DSNT NE AND SE T01790165 10215 20179 402570115
KLXN 230535Z AUTO 14004KT 7SM SCT015 SCT029 OVC100 18/17 A2990 RMK AO2 LTG DSNT E T01810166
KLXN 230515Z AUTO 00000KT 7SM BKN015 BKN021 OVC026 19/17 A2992 RMK AO2 T01850167
KLXN 230455Z AUTO 29007KT 7SM SCT014 SCT021 18/17 A2992 RMK AO2 T01830165
KLXN 230435Z AUTO 00000KT 10SM CLR 19/16 A2988 RMK AO2 LTG DSNT SE T01850161
KLXN 230415Z AUTO 12007KT 10SM SCT012 19/16 A2986 RMK AO2 LTG DSNT E T01860162
KLXN 230355Z AUTO 19006KT 10SM SCT012 19/16 A2986 RMK AO2 T01900163
KLXN 230335Z AUTO 11014G21KT 10SM SCT120 19/17 A2980 RMK AO2 T01900165
KLXN 230315Z AUTO 08007KT 10SM SCT120 19/16 A2981 RMK AO2 T01900164
KLXN 230255Z AUTO 11004KT 10SM SCT120 19/16 A2981 RMK AO2 T01930160
KLXN 230235Z AUTO 14004KT 10SM CLR 19/16 A2982 RMK AO2 T01900155
KLXN 230215Z AUTO 11004KT 10SM CLR 20/15 A2980 RMK AO2 T01960150
KLXN 230155Z AUTO 13012KT 10SM -RA SCT034 SCT060 SCT085 19/16 A2977 RMK AO2 T01900156
KLXN 230135Z AUTO 17004KT 10SM SCT100 SCT120 20/15 A2978 RMK AO2 T02000152
KLXN 230115Z AUTO 12006KT 10SM CLR 20/15 A2979 RMK AO2 LTG DSNT SE T01990151
KLXN 230055Z AUTO 15006KT 10SM VCTS CLR 20/15 A2982 RMK AO2 T02000152
KLXN 230035Z AUTO 15008KT 10SM CLR 20/15 A2983 RMK AO2 T02030152
KLXN 230015Z AUTO 17005KT 10SM CLR 21/15 A2983 RMK AO2 T02050154
KLXN 222355Z AUTO 17009KT 10SM SCT045 SCT085 22/16 A2982 RMK AO2 LTG DSNT SE T02170159 10257 20217
KLXN 222335Z AUTO 16007KT 10SM -RA BKN045 BKN050 OVC085 23/16 A2985 RMK AO2 LTG DSNT SE T02310163
KLXN 222315Z AUTO 18004KT 10SM SCT047 SCT050 OVC075 24/15 A2987 RMK AO2 LTG DSNT SE THRU SW T02370153
KLXN 222255Z AUTO 22004KT 10SM VCTS BKN075 24/15 A2988 RMK AO2 LTG DSNT S T02420148
KLXN 222235Z AUTO 14005KT 10SM SCT085 25/14 A2985 RMK AO2 LTG DSNT S THRU W T02470144
KLXN 222215Z AUTO 13004KT 10SM VCTS BKN085 BKN100 25/14 A2985 RMK AO2 LTG DSNT W T02490136
KLXN 222155Z AUTO 13006KT 10SM SCT042 BKN085 BKN100 25/14 A2986 RMK AO2 LTG DSNT SW T02520140
KLXN 222135Z AUTO 15006KT 10SM BKN085 BKN100 26/15 A2986 RMK AO2 T02550146
KLXN 222115Z AUTO 15005KT 10SM SCT085 25/14 A2988 RMK AO2 T02500142
KLXN 222055Z AUTO 00000KT 10SM SCT085 25/13 A2989 RMK AO2 T02450131
KLXN 222035Z AUTO 12009KT 10SM CLR 25/14 A2989 RMK AO2 T02490141
KLXN 222015Z AUTO 11007KT 10SM CLR 25/14 A2988 RMK AO2 T02490142
KLXN 221955Z AUTO 09005KT 10SM CLR 25/14 A2989 RMK AO2 T02460143
KLXN 221935Z AUTO 09004KT 10SM CLR 24/14 A2990 RMK AO2 T02420143